Time;durP1;ratioP1;P1;durP2;ratioP2;P2;SDS_P1;SDS_P2;PMS_P1;PMS_P2;Temp;Humidity;BMP_temperature;BMP_pressure;BME280_temperature;BME280_humidity;BME280_pressure;Samples;Min_cycle;Max_cycle;Signal;HPM_P1;HPM_P2
2021/09/11 01:50:22;;;;;;;441.75;57.50;;;;;;;21.77;75.34;100851.81;5157957;23;123159;-96
2021/09/11 01:55:44;;;;;;;584.58;57.70;;;;;;;22.24;75.38;100918.59;5512169;23;123180;-96
2021/09/11 02:15:46;;;;;;;624.63;59.85;;;;;;;22.31;74.74;100918.75;5402759;23;123561;-96
2021/09/11 02:18:12;;;;;;;575.85;57.92;;;;;;;22.13;75.23;100880.38;4810547;29;121000;-96
2021/09/11 02:23:29;;;;;;;508.25;55.22;;;;;;;22.37;75.29;100915.88;5809320;23;124051;-96
2021/09/11 02:31:47;;;;;;;564.95;58.28;;;;;;;22.16;74.14;100890.50;5753187;23;123274;-96
2021/09/11 02:51:07;;;;;;;383.17;54.47;;;;;;;22.18;74.54;100887.16;5015861;23;123129;-96
2021/09/11 02:53:33;;;;;;;627.78;66.18;;;;;;;22.01;74.20;100846.22;4816296;28;124328;-96
2021/09/11 02:55:58;;;;;;;620.28;65.65;;;;;;;22.03;74.31;100854.81;4820378;29;122156;-96
2021/09/11 02:58:24;;;;;;;560.42;64.22;;;;;;;22.47;74.29;100910.69;4820222;29;123036;-96
2021/09/11 03:00:51;;;;;;;600.15;62.60;;;;;;;22.46;73.93;100912.72;4818922;28;124752;-96
2021/09/11 03:03:19;;;;;;;657.60;68.40;;;;;;;22.28;74.68;100891.13;4824496;29;123207;-96
2021/09/11 03:05:45;;;;;;;508.58;62.20;;;;;;;22.40;74.38;100900.84;4819208;29;124259;-96
2021/09/11 03:08:11;;;;;;;685.13;66.53;;;;;;;22.34;74.22;100894.59;4828858;29;123378;-96
2021/09/11 03:10:36;;;;;;;571.03;67.53;;;;;;;22.32;74.11;100883.19;4825270;28;123514;-95
2021/09/11 03:13:02;;;;;;;723.63;71.30;;;;;;;22.35;74.06;100890.50;4822586;28;124400;-96
2021/09/11 03:15:28;;;;;;;697.63;69.00;;;;;;;22.35;74.31;100891.25;4814374;29;121013;-96
2021/09/11 03:17:54;;;;;;;637.45;64.18;;;;;;;22.15;74.15;100854.69;4825579;28;123158;-96
2021/09/11 03:20:19;;;;;;;686.38;69.95;;;;;;;22.39;74.44;100898.59;4825710;28;124275;-96
2021/09/11 03:22:45;;;;;;;521.05;63.85;;;;;;;22.33;74.12;100877.06;4822068;28;123463;-96
2021/09/11 03:25:12;;;;;;;694.85;72.55;;;;;;;22.54;73.86;100908.06;4815068;29;124172;-96
2021/09/11 03:27:39;;;;;;;509.45;68.47;;;;;;;22.30;73.92;100878.13;4828088;29;121049;-96
2021/09/11 03:30:06;;;;;;;505.05;70.40;;;;;;;22.36;74.24;100875.25;4827133;28;123620;-96
2021/09/11 03:32:32;;;;;;;490.48;65.90;;;;;;;22.44;73.96;100898.50;4830007;28;124114;-96
2021/09/11 03:34:58;;;;;;;528.72;71.38;;;;;;;22.41;73.85;100884.84;4842329;28;121106;-96
2021/09/11 03:37:24;;;;;;;614.38;74.35;;;;;;;22.56;73.95;100913.88;4826245;28;123415;-96
2021/09/11 03:39:49;;;;;;;760.85;83.22;;;;;;;22.47;73.94;100891.09;4828145;28;123974;-96
2021/09/11 03:42:15;;;;;;;563.05;73.82;;;;;;;22.57;73.99;100911.81;4828127;29;121053;-96
2021/09/11 03:44:41;;;;;;;779.53;85.40;;;;;;;22.40;74.17;100892.47;4824786;28;124393;-96
2021/09/11 03:47:07;;;;;;;824.63;84.72;;;;;;;22.42;73.78;100891.94;4828377;28;121289;-96
2021/09/11 03:49:32;;;;;;;578.58;75.13;;;;;;;22.58;73.63;100913.34;4824678;28;123469;-96
2021/09/11 03:51:58;;;;;;;784.67;78.68;;;;;;;22.48;73.74;100898.25;4825439;29;123667;-96
2021/09/11 03:54:24;;;;;;;791.83;82.78;;;;;;;22.56;73.41;100910.31;4826693;28;121095;-96
2021/09/11 03:56:49;;;;;;;805.60;83.82;;;;;;;22.42;73.84;100880.75;4828037;28;123394;-96
2021/09/11 03:59:15;;;;;;;643.45;81.53;;;;;;;22.49;73.53;100894.16;4835332;28;123987;-96
2021/09/11 04:01:41;;;;;;;736.13;84.55;;;;;;;22.57;73.69;100912.59;4844292;28;123530;-96
2021/09/11 04:04:06;;;;;;;570.38;79.40;;;;;;;22.56;73.62;100911.06;4835207;28;123362;-96
2021/09/11 04:06:34;;;;;;;697.75;81.97;;;;;;;22.40;73.56;100875.72;4824491;28;122561;-96
2021/09/11 04:09:00;;;;;;;835.83;88.95;;;;;;;22.37;73.31;100879.56;4823859;29;124238;-96
2021/09/11 04:11:25;;;;;;;734.35;84.82;;;;;;;22.35;73.17;100877.28;4833211;29;124234;-96
2021/09/11 04:13:51;;;;;;;809.17;86.10;;;;;;;22.48;73.73;100907.38;4836718;28;120953;-96
2021/09/11 04:16:17;;;;;;;618.70;79.95;;;;;;;22.46;73.14;100907.13;4815713;29;123499;-96
2021/09/11 04:18:42;;;;;;;766.33;82.15;;;;;;;22.44;73.23;100904.09;4822894;28;124279;-96
2021/09/11 04:21:08;;;;;;;629.67;76.75;;;;;;;22.02;73.41;100842.13;4837918;28;120990;-96
2021/09/11 04:23:34;;;;;;;816.63;83.15;;;;;;;22.28;72.78;100885.53;4828874;28;123434;-96
2021/09/11 04:26:00;;;;;;;726.95;83.88;;;;;;;22.10;73.03;100864.66;4839025;28;124253;-96
2021/09/11 04:28:26;;;;;;;739.80;81.63;;;;;;;21.86;72.82;100840.28;4826397;28;123426;-96
2021/09/11 04:30:51;;;;;;;679.63;80.28;;;;;;;22.12;72.80;100881.66;4828118;28;124277;-96
2021/09/11 04:33:17;;;;;;;781.70;84.40;;;;;;;22.24;72.49;100901.81;4820144;28;121590;-96
2021/09/11 04:35:46;;;;;;;726.63;78.53;;;;;;;21.82;73.03;100859.38;4823460;28;123074;-96
2021/09/11 04:38:11;;;;;;;763.17;81.95;;;;;;;22.10;73.25;100897.44;4824312;29;124315;-96
2021/09/11 04:40:37;;;;;;;747.38;82.63;;;;;;;22.09;73.12;100896.66;4838806;28;121140;-96
2021/09/11 04:43:07;;;;;;;650.42;80.65;;;;;;;22.08;73.25;100889.56;4820607;28;123351;-96
2021/09/11 04:45:34;;;;;;;547.40;74.57;;;;;;;21.79;72.88;100846.47;4825534;29;123974;-96
2021/09/11 04:48:00;;;;;;;585.78;76.78;;;;;;;22.04;73.71;100894.72;4827823;28;123581;-96
2021/09/11 04:50:26;;;;;;;795.35;85.15;;;;;;;21.88;73.26;100868.44;4838122;29;124360;-96
2021/09/11 04:52:52;;;;;;;768.85;80.90;;;;;;;22.03;73.48;100891.13;4827359;28;121088;-95
2021/09/11 04:55:18;;;;;;;569.47;71.57;;;;;;;21.78;73.26;100849.78;4827793;28;123670;-96
2021/09/11 04:57:43;;;;;;;570.25;71.38;;;;;;;22.20;73.17;100913.28;4837114;29;124161;-96
2021/09/11 05:00:10;;;;;;;526.33;68.30;;;;;;;22.05;72.90;100891.38;4820924;29;121627;-96
2021/09/11 05:02:36;;;;;;;536.22;69.03;;;;;;;21.94;72.88;100879.53;4833904;28;123340;-96
2021/09/11 05:05:02;;;;;;;682.97;74.32;;;;;;;22.02;73.33;100898.00;4813751;29;124202;-96
2021/09/11 05:07:28;;;;;;;659.20;72.43;;;;;;;22.04;72.97;100897.50;4836756;28;121040;-95
2021/09/11 05:09:53;;;;;;;724.03;73.90;;;;;;;22.16;73.05;100923.25;4830324;28;123366;-94
2021/09/11 05:12:19;;;;;;;703.70;72.85;;;;;;;21.91;73.34;100880.59;4821855;29;121705;-96
2021/09/11 05:14:45;;;;;;;741.47;78.47;;;;;;;22.18;72.93;100920.69;4828115;28;123467;-96
2021/09/11 05:17:10;;;;;;;602.55;69.10;;;;;;;21.91;73.35;100886.19;4824838;28;124340;-95
2021/09/11 05:19:36;;;;;;;756.17;74.20;;;;;;;22.07;73.00;100904.06;4823057;28;120979;-96
2021/09/11 05:22:02;;;;;;;655.33;71.60;;;;;;;22.04;73.59;100901.06;4825721;29;123610;-96
2021/09/11 05:24:28;;;;;;;729.92;79.35;;;;;;;22.04;73.32;100906.63;4825511;29;124431;-96
2021/09/11 05:26:54;;;;;;;696.58;66.57;;;;;;;22.10;73.24;100905.81;4837577;29;122816;-96
2021/09/11 05:29:20;;;;;;;792.33;76.38;;;;;;;21.98;73.48;100880.00;4825210;28;123048;-96
2021/09/11 05:31:45;;;;;;;800.47;78.03;;;;;;;22.19;73.48;100922.19;4830832;28;121112;-96
2021/09/11 05:34:11;;;;;;;686.20;74.50;;;;;;;22.27;73.28;100934.31;4825478;28;123303;-96
2021/09/11 05:36:37;;;;;;;849.28;77.47;;;;;;;22.28;73.69;100924.66;4822807;28;124377;-96
2021/09/11 05:39:03;;;;;;;807.67;78.05;;;;;;;21.88;73.25;100871.22;4825294;29;120980;-96
2021/09/11 05:41:29;;;;;;;632.08;73.55;;;;;;;22.12;72.92;100903.25;4830880;28;123493;-96
2021/09/11 05:43:55;;;;;;;812.08;81.03;;;;;;;21.89;73.73;100867.16;4839887;29;123979;-96
2021/09/11 05:46:21;;;;;;;630.55;76.22;;;;;;;22.11;73.68;100901.72;4820189;29;121161;-95
2021/09/11 05:48:46;;;;;;;700.00;78.93;;;;;;;22.25;73.28;100928.50;4819489;29;123407;-96
2021/09/11 05:51:13;;;;;;;765.25;78.90;;;;;;;22.20;73.68;100920.91;4831427;29;124396;-96
2021/09/11 05:53:38;;;;;;;694.60;73.10;;;;;;;22.28;73.54;100930.25;4826346;28;123425;-96
2021/09/11 05:56:04;;;;;;;754.17;75.57;;;;;;;22.40;73.73;100942.78;4818684;29;123934;-96
2021/09/11 05:58:30;;;;;;;721.50;77.13;;;;;;;22.31;73.70;100929.94;4821158;28;121549;-96
2021/09/11 06:00:56;;;;;;;733.63;75.82;;;;;;;22.28;72.95;100928.19;4833429;29;123433;-96
2021/09/11 06:03:23;;;;;;;739.65;77.57;;;;;;;22.44;73.31;100950.88;4813580;28;124661;-96
2021/09/11 06:05:49;;;;;;;790.80;80.88;;;;;;;22.37;73.35;100932.66;4833750;29;121171;-96
2021/09/11 06:08:15;;;;;;;809.05;80.18;;;;;;;22.49;73.57;100950.06;4835699;28;123368;-96
2021/09/11 06:10:40;;;;;;;809.83;82.88;;;;;;;22.52;73.20;100943.41;4836238;28;124182;-96
2021/09/11 06:13:06;;;;;;;852.10;83.88;;;;;;;22.53;73.66;100944.91;4834259;28;121615;-96
2021/09/11 06:15:32;;;;;;;814.63;80.85;;;;;;;22.38;73.51;100909.03;4823484;29;125412;-96
2021/09/11 06:17:58;;;;;;;723.10;78.47;;;;;;;22.18;73.70;100881.56;4826542;28;121059;-96
2021/09/11 06:20:23;;;;;;;682.10;76.07;;;;;;;22.47;73.76;100928.19;4820183;28;123369;-96
2021/09/11 06:22:49;;;;;;;641.35;78.68;;;;;;;22.22;73.67;100890.41;4863991;23;124309;-96
2021/09/11 06:25:15;;;;;;;857.72;82.30;;;;;;;22.37;73.61;100913.09;4855029;28;121232;-96
2021/09/11 06:27:41;;;;;;;783.95;82.20;;;;;;;22.26;73.25;100888.09;4842709;28;123379;-96
2021/09/11 06:30:12;;;;;;;703.88;78.13;;;;;;;22.55;73.44;100934.72;4842159;28;124103;-96
2021/09/11 06:32:41;;;;;;;812.28;80.68;;;;;;;22.26;73.66;100891.66;5030941;23;123434;-96
2021/09/11 06:35:08;;;;;;;830.35;81.20;;;;;;;22.47;73.26;100922.59;4809424;28;124211;-93
2021/09/11 06:37:34;;;;;;;814.60;79.82;;;;;;;22.51;73.57;100925.13;5057431;23;124013;-96
2021/09/11 06:40:00;;;;;;;634.70;78.25;;;;;;;22.57;73.65;100937.75;4824910;29;123661;-96
2021/09/11 06:42:29;;;;;;;684.95;77.95;;;;;;;22.59;73.34;100932.38;4836357;28;125157;-96
2021/09/11 06:44:54;;;;;;;589.78;74.00;;;;;;;22.63;73.63;100935.63;4816732;29;121909;-95
2021/09/11 06:47:23;;;;;;;763.67;80.70;;;;;;;22.51;73.32;100911.16;4835188;29;123484;-96
2021/09/11 06:49:55;;;;;;;703.20;77.35;;;;;;;22.80;73.92;100957.03;4825043;29;124893;-94
2021/09/11 06:52:21;;;;;;;722.90;79.50;;;;;;;22.49;73.61;100910.94;4817145;29;121253;-96
2021/09/11 06:54:47;;;;;;;621.75;75.07;;;;;;;22.70;73.50;100936.28;4828903;29;123457;-95
2021/09/11 06:57:14;;;;;;;538.47;72.65;;;;;;;22.81;72.99;100958.53;4820914;29;123953;-95
2021/09/11 06:59:39;;;;;;;656.88;73.90;;;;;;;22.67;73.09;100950.06;4815294;29;123673;-95
2021/09/11 07:02:05;;;;;;;814.17;83.95;;;;;;;22.65;73.19;100941.44;4811693;28;124190;-95
2021/09/11 07:04:47;;;;;;;799.90;82.70;;;;;;;22.79;73.03;100972.28;4826916;28;121614;-96
2021/09/11 07:07:13;;;;;;;648.53;76.82;;;;;;;22.44;73.35;100914.53;4816040;29;123451;-96
2021/09/11 07:09:39;;;;;;;720.30;77.90;;;;;;;22.41;73.44;100905.16;4824907;28;124141;-96
2021/09/11 07:12:05;;;;;;;724.72;81.40;;;;;;;22.82;72.82;100966.41;4826110;28;121147;-95
2021/09/11 07:14:31;;;;;;;714.03;74.95;;;;;;;22.81;73.40;100970.50;4819674;29;123565;-96
2021/09/11 07:16:57;;;;;;;674.30;78.93;;;;;;;22.60;73.36;100928.28;4835485;28;124459;-96
2021/09/11 07:19:22;;;;;;;604.65;78.20;;;;;;;22.76;73.32;100948.19;4830786;28;121830;-95
2021/09/11 07:21:48;;;;;;;862.55;86.45;;;;;;;22.43;73.50;100908.19;4817081;28;124372;-95
2021/09/11 07:24:15;;;;;;;776.03;81.97;;;;;;;22.86;73.39;100968.91;4824850;28;121084;-96
2021/09/11 07:26:40;;;;;;;496.23;72.93;;;;;;;22.53;73.24;100925.34;4820442;28;123700;-96
2021/09/11 07:29:06;;;;;;;776.33;83.40;;;;;;;22.88;72.88;100969.88;4839062;29;124400;-96
2021/09/11 07:31:32;;;;;;;489.77;74.28;;;;;;;22.77;73.45;100952.50;4824749;28;121903;-96
2021/09/11 07:39:35;;;;;;;685.05;79.05;;;;;;;22.86;73.11;100975.25;5383941;23;123147;-96
2021/09/11 07:44:56;;;;;;;397.35;66.47;;;;;;;22.73;73.52;100949.25;5106429;23;123482;-96
2021/09/11 07:50:11;;;;;;;732.95;78.20;;;;;;;22.62;72.71;100925.72;5020165;23;123898;-93
2021/09/11 07:55:33;;;;;;;593.17;76.97;;;;;;;22.85;73.10;100948.56;5416397;23;123940;-96
2021/09/11 07:58:02;;;;;;;391.35;67.25;;;;;;;22.99;72.64;100973.81;4820125;28;124770;-96
2021/09/11 08:00:28;;;;;;;613.70;74.38;;;;;;;22.98;73.28;100963.94;4842150;28;121171;-96
2021/09/11 08:02:55;;;;;;;554.85;72.65;;;;;;;23.00;72.81;100972.53;5166950;23;124065;-95
2021/09/11 08:11:13;;;;;;;467.25;70.75;;;;;;;23.14;72.35;100993.69;5620099;23;123868;-96
2021/09/11 08:13:39;;;;;;;535.83;72.13;;;;;;;23.05;72.39;100985.69;5378122;23;123533;-96
2021/09/11 08:30:50;;;;;;;338.95;63.00;;;;;;;23.31;72.39;100993.44;5192699;23;123180;-96
2021/09/11 08:33:16;;;;;;;322.17;58.70;;;;;;;23.07;72.64;100955.88;4819615;28;124667;-96
2021/09/11 08:35:42;;;;;;;466.08;64.70;;;;;;;23.02;72.22;100951.13;4805966;29;121181;-95
2021/09/11 08:38:11;;;;;;;415.10;63.72;;;;;;;22.86;72.43;100927.72;4824879;29;123575;-96
2021/09/11 08:40:37;;;;;;;356.85;59.47;;;;;;;22.92;72.51;100930.41;4820284;28;124309;-96
2021/09/11 08:43:15;;;;;;;;;;;;;;;;;;;;;
2021/09/11 08:45:41;;;;;;;506.63;62.05;;;;;;;23.32;72.12;100973.31;4810389;29;123705;-94
2021/09/11 08:48:06;;;;;;;313.70;59.13;;;;;;;23.44;72.08;100980.25;4818172;29;124173;-95
2021/09/11 08:50:32;;;;;;;255.10;55.33;;;;;;;23.36;72.16;100964.59;4825724;29;121162;-95
2021/09/11 08:52:58;;;;;;;328.48;56.88;;;;;;;23.53;72.05;100987.50;4818982;29;124127;-96
2021/09/11 08:55:24;;;;;;;275.92;55.80;;;;;;;23.30;71.95;100947.16;4802330;29;121107;-95
2021/09/11 08:58:06;;;;;;;256.13;54.33;;;;;;;23.73;72.51;101006.53;4822931;29;123148;-95
2021/09/11 09:00:47;;;;;;;378.02;57.63;;;;;;;23.36;72.18;100951.38;4824990;29;124120;-96
2021/09/11 09:06:26;;;;;;;304.25;54.83;;;;;;;23.64;71.70;100978.94;5429736;23;123909;-96
2021/09/11 09:11:43;;;;;;;262.73;54.33;;;;;;;23.35;71.24;100946.31;5622765;23;123188;-96
2021/09/11 10:40:51;;;;;;;59.25;25.55;;;;;;;23.72;69.16;100959.47;4823052;29;125825;-96
2021/09/11 10:43:18;;;;;;;57.58;26.45;;;;;;;23.71;69.08;100958.72;4806239;29;124008;-96
2021/09/11 10:45:53;;;;;;;52.58;26.98;;;;;;;23.85;69.34;100984.69;4812065;29;123349;-96
2021/09/11 10:48:43;;;;;;;87.03;30.45;;;;;;;23.87;69.39;100980.06;4807355;29;123752;-96
2021/09/11 10:51:17;;;;;;;68.97;29.98;;;;;;;23.90;69.51;100978.25;4831491;29;124581;-97
2021/09/11 10:53:57;;;;;;;70.78;29.60;;;;;;;23.91;70.33;100976.97;4798626;29;121199;-96
2021/09/11 10:56:28;;;;;;;60.63;27.77;;;;;;;23.92;70.12;100977.72;4824219;29;123356;-96
2021/09/11 10:59:16;;;;;;;54.50;25.73;;;;;;;23.93;70.26;100973.63;4822018;29;121487;-96
2021/09/11 11:02:24;;;;;;;39.13;21.30;;;;;;;23.88;69.83;100975.97;4809717;29;123603;-96
2021/09/11 11:04:49;;;;;;;37.72;20.58;;;;;;;23.84;69.77;100978.31;4808427;29;124443;-96
2021/09/11 11:07:22;;;;;;;36.70;21.67;;;;;;;23.65;68.81;100962.88;4807160;29;121073;-96
2021/09/11 11:09:50;;;;;;;46.05;22.77;;;;;;;23.35;69.20;100913.47;4806553;29;123453;-96
2021/09/11 11:12:23;;;;;;;45.58;23.55;;;;;;;23.72;69.52;100960.22;4804790;29;124130;-95
2021/09/11 11:14:49;;;;;;;38.33;23.42;;;;;;;23.61;69.13;100940.03;4826270;29;121615;-96
2021/09/11 11:17:18;;;;;;;45.45;26.98;;;;;;;23.74;69.23;100960.44;4802785;29;123443;-96
2021/09/11 11:19:49;;;;;;;45.40;26.33;;;;;;;23.62;69.73;100936.72;4826851;29;124264;-96
2021/09/11 11:22:42;;;;;;;45.80;26.17;;;;;;;23.44;69.80;100901.88;4831483;28;123477;-96
2021/09/11 11:25:14;;;;;;;43.17;25.63;;;;;;;23.74;69.51;100946.44;4810582;29;124598;-96
2021/09/11 11:27:41;;;;;;;44.38;24.77;;;;;;;23.70;69.68;100923.59;4803237;29;123202;-96
2021/09/11 11:30:11;;;;;;;37.83;23.80;;;;;;;23.83;69.08;100946.00;4811019;29;123521;-96
2021/09/11 11:32:37;;;;;;;34.05;22.20;;;;;;;23.95;68.27;100966.19;4806374;29;123953;-96
2021/09/11 11:35:05;;;;;;;37.60;22.88;;;;;;;23.94;68.70;100967.47;4806232;29;121404;-96
2021/09/11 11:37:38;;;;;;;35.97;22.02;;;;;;;23.75;68.84;100930.38;4805838;29;123383;-96
2021/09/11 11:40:15;;;;;;;45.28;24.98;;;;;;;23.60;69.06;100913.34;4804001;29;124463;-96
2021/09/11 11:45:28;;;;;;;35.45;21.65;;;;;;;24.02;68.59;100959.94;4844897;28;124779;-96
2021/09/11 11:48:13;;;;;;;36.83;21.45;;;;;;;23.83;68.33;100920.78;4829352;29;122772;-96
2021/09/11 11:50:46;;;;;;;33.85;20.45;;;;;;;23.81;68.36;100914.97;4842997;28;123427;-96
2021/09/11 11:53:14;;;;;;;32.38;20.15;;;;;;;23.84;67.81;100915.94;4817667;28;124480;-96
2021/09/11 11:55:45;;;;;;;32.75;20.05;;;;;;;23.85;67.87;100909.81;4812345;28;123270;-96
2021/09/11 11:58:14;;;;;;;37.13;22.77;;;;;;;24.07;67.24;100952.69;4851787;23;124134;-96
2021/09/11 12:00:40;;;;;;;39.47;24.17;;;;;;;24.22;66.75;100972.53;5339761;23;124661;-96
2021/09/11 12:03:06;;;;;;;37.28;22.73;;;;;;;23.80;67.85;100921.88;4849532;28;121626;-96
2021/09/11 12:05:32;;;;;;;37.65;24.30;;;;;;;23.78;67.22;100910.44;4833123;28;123032;-95
2021/09/11 12:16:30;;;;;;;49.85;29.48;;;;;;;23.81;67.92;100957.00;5130481;23;122424;-96
2021/09/11 12:19:23;;;;;;;50.13;28.42;;;;;;;23.56;68.53;100936.06;4878373;23;123836;-96
2021/09/11 12:21:52;;;;;;;65.68;32.45;;;;;;;23.53;68.81;100943.44;4807817;29;123939;-96
2021/09/11 12:24:23;;;;;;;73.95;34.83;;;;;;;23.49;69.44;100942.25;4810692;29;121685;-96
2021/09/11 12:26:49;;;;;;;78.40;34.20;;;;;;;23.60;69.88;100946.94;4814633;28;123541;-96
2021/09/11 12:29:18;;;;;;;93.53;39.45;;;;;;;23.66;69.99;100950.38;4825280;28;121528;-96
2021/09/11 12:31:54;;;;;;;72.80;34.78;;;;;;;23.85;70.37;100965.06;4809956;28;123508;-96
2021/09/11 12:34:21;;;;;;;81.57;34.28;;;;;;;23.89;70.63;100968.31;4822900;29;123379;-96
2021/09/11 12:36:57;;;;;;;82.15;35.72;;;;;;;23.54;70.82;100905.00;4806161;29;121694;-96
2021/09/11 12:39:30;;;;;;;93.70;35.42;;;;;;;23.97;70.81;100957.22;4806659;29;123701;-96
2021/09/11 12:41:59;;;;;;;73.90;36.97;;;;;;;23.84;69.97;100944.72;4809275;29;124297;-96
2021/09/11 12:44:29;;;;;;;86.10;36.10;;;;;;;23.89;70.21;100945.91;4805508;29;125438;-96
2021/09/11 12:46:57;;;;;;;79.88;36.75;;;;;;;23.83;69.96;100929.19;4836697;29;124196;-96
2021/09/11 12:49:25;;;;;;;90.45;36.97;;;;;;;23.64;69.98;100894.91;4822497;29;124383;-96
2021/09/11 12:51:53;;;;;;;85.50;36.15;;;;;;;24.07;69.94;100955.50;4819690;29;123639;-96
2021/09/11 12:54:21;;;;;;;72.55;35.55;;;;;;;24.04;69.55;100956.59;4789865;29;124587;-96
2021/09/11 12:56:47;;;;;;;79.28;37.47;;;;;;;24.01;70.15;100952.06;4825903;29;121031;-96
2021/09/11 12:59:14;;;;;;;86.05;36.58;;;;;;;23.86;70.12;100930.16;4806358;29;123454;-96
2021/09/11 13:01:41;;;;;;;73.70;35.72;;;;;;;23.69;70.11;100907.34;4804308;29;124420;-96
2021/09/11 13:04:13;;;;;;;80.40;34.75;;;;;;;24.08;70.36;100959.81;4821659;29;121242;-96
2021/09/11 13:06:40;;;;;;;74.90;36.67;;;;;;;23.89;69.28;100941.03;4810229;29;123447;-96
2021/09/11 13:09:08;;;;;;;93.63;36.60;;;;;;;23.87;69.71;100937.28;4808204;29;123976;-96
2021/09/11 13:11:34;;;;;;;75.85;34.10;;;;;;;23.61;69.94;100907.19;4808191;29;121363;-96
2021/09/11 13:14:02;;;;;;;71.75;33.20;;;;;;;23.55;69.10;100906.53;4831015;29;124471;-96
2021/09/11 13:16:29;;;;;;;66.22;31.45;;;;;;;23.78;69.66;100962.91;4806767;29;121748;-96
2021/09/11 13:18:55;;;;;;;60.35;29.80;;;;;;;23.41;69.57;100902.94;4812331;29;122987;-96
2021/09/11 13:21:21;;;;;;;72.07;31.85;;;;;;;23.33;69.30;100904.84;4803167;29;125567;-96
2021/09/11 13:23:48;;;;;;;70.55;33.20;;;;;;;23.69;69.66;100961.28;4820893;29;121962;-96
2021/09/11 13:26:17;;;;;;;64.97;33.60;;;;;;;23.66;69.62;100950.38;4820821;29;123371;-96
2021/09/11 13:28:44;;;;;;;79.55;37.83;;;;;;;23.25;70.35;100901.19;4806675;29;124726;-96
2021/09/11 13:31:11;;;;;;;100.05;39.78;;;;;;;23.28;70.30;100908.50;4825371;29;120990;-96
2021/09/11 13:33:38;;;;;;;91.72;39.10;;;;;;;23.64;70.83;100956.53;4811456;29;123709;-96
2021/09/11 13:36:04;;;;;;;101.32;41.72;;;;;;;23.70;70.50;100962.81;4823100;29;121056;-96
2021/09/11 13:38:32;;;;;;;95.30;41.03;;;;;;;23.77;70.89;100956.56;4808691;29;123574;-96
2021/09/11 13:40:58;;;;;;;87.18;41.58;;;;;;;23.83;70.65;100954.41;4806995;29;124286;-96
2021/09/11 13:43:24;;;;;;;91.47;41.35;;;;;;;23.74;70.01;100951.28;4804071;29;121919;-96
2021/09/11 13:45:51;;;;;;;87.78;40.50;;;;;;;23.42;70.26;100893.25;4824775;29;123972;-96
2021/09/11 13:48:17;;;;;;;87.72;42.00;;;;;;;23.87;70.18;100949.22;4811439;29;124142;-96
2021/09/11 13:50:43;;;;;;;84.88;40.28;;;;;;;23.73;70.25;100938.56;4807641;29;121191;-96
2021/09/11 13:53:09;;;;;;;86.80;39.83;;;;;;;23.83;70.27;100957.22;4806948;29;123586;-96
2021/09/11 13:55:35;;;;;;;99.53;41.42;;;;;;;23.75;70.32;100953.53;4811573;29;123903;-96
2021/09/11 13:58:01;;;;;;;81.88;37.83;;;;;;;23.68;69.99;100954.19;4824890;29;123411;-96
2021/09/11 14:00:28;;;;;;;81.97;39.92;;;;;;;23.61;70.11;100940.78;4821062;29;124357;-96
2021/09/11 14:02:54;;;;;;;79.75;38.35;;;;;;;23.74;69.81;100966.03;4819846;29;121179;-96
2021/09/11 14:05:20;;;;;;;82.93;39.58;;;;;;;23.57;70.04;100946.72;4822411;29;123141;-96
2021/09/11 14:07:46;;;;;;;98.25;40.47;;;;;;;23.72;70.60;100968.63;4805831;28;124519;-96
2021/09/11 14:10:12;;;;;;;95.25;41.55;;;;;;;23.53;70.29;100943.44;4821380;29;121158;-96
2021/09/11 14:12:38;;;;;;;89.65;39.50;;;;;;;23.74;70.57;100970.88;4808914;28;123598;-96
2021/09/11 14:15:07;;;;;;;83.80;40.42;;;;;;;23.63;70.33;100963.41;4812521;29;124605;-95
2021/09/11 14:17:41;;;;;;;78.90;37.92;;;;;;;23.76;70.06;100971.84;4967079;23;125328;-96
2021/09/11 14:20:07;;;;;;;81.10;38.67;;;;;;;23.40;70.12;100923.06;4996553;23;124532;-96
2021/09/11 14:22:33;;;;;;;79.15;39.95;;;;;;;23.76;69.93;100969.06;4825265;29;122023;-96
2021/09/11 14:24:59;;;;;;;90.22;40.13;;;;;;;23.55;70.28;100942.91;4825808;28;123050;-96
2021/09/11 14:27:24;;;;;;;85.88;40.53;;;;;;;23.79;70.25;100975.63;4841832;28;123989;-96
2021/09/11 14:29:50;;;;;;;90.60;40.95;;;;;;;23.81;70.48;100973.78;4843005;28;121595;-96
2021/09/11 14:32:18;;;;;;;74.30;37.88;;;;;;;23.50;69.95;100919.34;4825340;28;124849;-96
2021/09/11 14:34:44;;;;;;;74.55;37.78;;;;;;;23.83;70.06;100970.47;4826217;28;124825;-96
2021/09/11 14:37:10;;;;;;;76.30;37.13;;;;;;;23.45;70.09;100913.84;4829344;28;121603;-96
2021/09/11 14:39:36;;;;;;;79.00;35.00;;;;;;;23.63;70.09;100946.63;4828406;28;124044;-96
2021/09/11 14:42:06;;;;;;;76.10;37.00;;;;;;;23.50;70.03;100935.38;4824948;29;121040;-96
2021/09/11 14:44:35;;;;;;;80.55;36.08;;;;;;;23.73;70.17;100972.94;4840379;28;123261;-96
2021/09/11 14:47:00;;;;;;;74.15;36.95;;;;;;;23.28;70.35;100911.31;4824849;28;124429;-96
2021/09/11 14:49:29;;;;;;;66.13;35.35;;;;;;;23.31;69.81;100915.06;4912877;23;122263;-96
2021/09/11 14:51:55;;;;;;;71.03;35.97;;;;;;;23.68;69.85;100976.59;4831399;28;123324;-96
2021/09/11 14:54:20;;;;;;;73.13;36.47;;;;;;;23.65;70.55;100979.69;4848044;28;124254;-96
2021/09/11 14:56:46;;;;;;;69.85;35.60;;;;;;;23.44;70.28;100943.13;4825062;28;121647;-96
2021/09/11 14:59:12;;;;;;;68.53;35.08;;;;;;;23.24;69.94;100919.25;4833342;28;123109;-96
2021/09/11 15:01:38;;;;;;;69.72;35.67;;;;;;;23.45;70.10;100953.78;4827021;28;121252;-96
2021/09/11 15:04:04;;;;;;;73.28;36.97;;;;;;;23.61;69.88;100980.00;4836829;28;123363;-96
2021/09/11 15:06:29;;;;;;;74.70;37.33;;;;;;;23.50;69.93;100955.72;4825162;28;124383;-96
2021/09/11 15:08:56;;;;;;;84.00;36.40;;;;;;;23.43;70.06;100947.97;4823689;28;121093;-96
2021/09/11 15:11:22;;;;;;;82.10;37.80;;;;;;;23.46;70.41;100932.13;4826970;28;123692;-96
2021/09/11 15:13:47;;;;;;;86.68;39.25;;;;;;;23.61;70.64;100971.59;4826238;28;124350;-96
2021/09/11 15:16:13;;;;;;;70.75;39.08;;;;;;;23.63;70.55;100963.41;4845887;28;121514;-96
2021/09/11 15:18:39;;;;;;;75.43;38.50;;;;;;;23.19;69.88;100906.13;4823453;28;123376;-96
2021/09/11 15:21:04;;;;;;;71.80;35.80;;;;;;;23.49;70.38;100953.47;4831210;28;124372;-96
2021/09/11 15:23:33;;;;;;;76.32;37.85;;;;;;;23.58;69.95;100973.44;4839873;28;123732;-96
2021/09/11 15:25:58;;;;;;;73.85;36.47;;;;;;;23.45;69.99;100959.38;4826152;28;124382;-96
2021/09/11 15:28:24;;;;;;;75.75;36.58;;;;;;;23.45;69.92;100958.63;4845985;28;121136;-96
2021/09/11 15:31:03;;;;;;;95.35;38.60;;;;;;;23.09;69.66;100911.34;4837535;28;123352;-96
2021/09/11 15:39:16;;;;;;;74.68;36.78;;;;;;;23.33;70.13;100944.03;4847870;23;122336;-96
2021/09/11 15:41:42;;;;;;;73.18;36.95;;;;;;;23.47;70.24;100964.44;4823280;28;124427;-96
2021/09/11 15:44:08;;;;;;;66.80;37.17;;;;;;;23.46;70.20;100965.72;4830533;28;121600;-96
2021/09/11 15:46:33;;;;;;;77.85;36.88;;;;;;;23.30;69.89;100935.97;4825332;28;124395;-96
2021/09/11 15:48:59;;;;;;;76.75;38.05;;;;;;;23.19;70.53;100929.25;4825792;28;123374;-96
2021/09/11 15:51:25;;;;;;;79.35;39.65;;;;;;;23.44;70.35;100966.28;4827183;28;123444;-96
2021/09/11 15:53:53;;;;;;;75.05;38.72;;;;;;;23.28;70.13;100944.88;4840517;28;124219;-96
2021/09/11 15:56:19;;;;;;;82.47;39.00;;;;;;;23.44;70.24;100959.91;5014069;23;123432;-66
2021/09/11 15:58:45;;;;;;;77.35;40.15;;;;;;;23.44;69.96;100959.91;4804678;29;122712;-67
2021/09/11 16:01:10;;;;;;;74.90;37.50;;;;;;;23.39;69.93;100958.69;4802626;29;122171;-67